Terminal Aerodrome Forecast
Issued by NWS

Home | Current Version | Previous Version | Graphics & Text | Print | Product List | Glossary On
Versions: 1 2 3 4 5 6 7 8 9 10 11 12 13 14 15 16 17 18 19 20 21 22 23 24 25 26 27 28
000
FTUS42 KMHX 250400 AAB
TAFISO
TAF AMD
KISO 250447Z 2505/2524 20010G15KT P6SM VCSH BKN040 OVC110
     FM250900 21010G15KT P6SM VCSH BKN015 OVC025
     FM251200 24010G15KT P6SM OVC080
     FM251600 29010G15KT P6SM SKC
      AMD LTD TO CLD VIS AND WIND=

USA.gov is the U.S. government's official web portal to all federal, state and local government web resources and services.